• Join FlightAware (Why Join?)
  • Login
  • US Flag 
08:43AM EDT


 

Airport Tracker/Info


-or-


 

Live Flight TrackerFlight Track Log ✈ AMF1026 ✈ 15-Aug-2013 ✈ KALB - KCVG

Flight Track Log - Related Links

Times and Time Zones

All times are in EDT time to prevent confusion due to time zone crossing. See the AMF1026 flight status page for this flight to view local times or setup timezone preferences in your user account.

Time Position Orientation Groundspeed Altitude Reporting Facility
EDT Latitude Longitude Course Direction KTS MPH feet Rate Location/Type
08:15PM 42.7694 -73.8089 324° Northwest 153 176 1,000  Level Boston Center
08:16PM 42.7983 -73.8378 324° Northwest 181 208 2,300 1,560 Climbing Boston Center
08:17PM 42.7744 -73.8967 241° Southwest 180 207 4,000 1,620 Climbing Boston Center
08:18PM 42.7553 -73.9389 238° Southwest 181 208 5,200 1,560 Climbing Boston Center
08:19PM 42.7397 -74.0061 253° West 196 226 6,800 1,380 Climbing Boston Center
08:20PM 42.7386 -74.0825 269° West 196 226 8,100 1,140 Climbing Boston Center
08:21PM 42.7397 -74.1503 271° West 196 226 9,200 1,080 Climbing Boston Center
08:22PM 42.7386 -74.2294 269° West 196 226 10,300 960 Climbing Boston Center
08:23PM 42.7333 -74.3028 264° West 196 226 11,200 900 Climbing Boston Center
08:24PM 42.7069 -74.3811 245° Southwest 208 239 12,200 900 Climbing Boston Center
08:25PM 42.6869 -74.4456 247° West 208 239 13,000 840 Climbing Boston Center
08:26PM 42.6667 -74.5267 251° West 213 245 13,900 720 Climbing Boston Center
08:27PM 42.6489 -74.5939 250° West 213 245 14,500 600 Climbing Boston Center
08:28PM 42.6264 -74.6778 250° West 207 238 15,200 600 Climbing Boston Center
08:29PM 42.6083 -74.7450 250° West 207 238 15,800 360 Climbing Boston Center
08:30PM 42.5878 -74.8344 253° West 212 244 16,000 60 Climbing Boston Center
08:31PM 42.5653 -74.9153 249° West 223 257 16,000  Level Boston Center
08:32PM 42.5467 -74.9961 253° West 223 257 16,000  Level Boston Center
08:33PM 42.5261 -75.0744 250° West 223 257 16,000  Level Boston Center
08:35PM 42.4822 -75.1875 242° Southwest 225 259 16,000  Level New York Center
08:36PM 42.4525 -75.2614 241° Southwest 225 259 16,000  Level New York Center
08:37PM 42.4228 -75.3322 240° Southwest 225 259 16,000  Level New York Center
08:38PM 42.3950 -75.4061 243° Southwest 225 259 16,000  Level New York Center
08:39PM 42.3650 -75.4797 241° Southwest 225 259 16,000  Level New York Center
08:40PM 42.3369 -75.5536 243° Southwest 225 259 16,000  Level New York Center
08:41PM 42.3111 -75.6272 245° Southwest 220 253 16,000  Level New York Center
08:42PM 42.2872 -75.7042 247° West 220 253 16,000  Level New York Center
08:43PM 42.2672 -75.7839 251° West 220 253 16,000  Level New York Center
08:44PM 42.2514 -75.8611 255° West 220 253 16,000  Level New York Center
08:45PM 42.2294 -75.9378 249° West 220 253 16,000  Level New York Center
08:46PM 42.2011 -76.0139 243° Southwest 225 259 16,000  Level New York Center
08:47PM 42.1689 -76.0842 238° Southwest 230 265 16,000  Level New York Center
08:48PM 42.1406 -76.1572 242° Southwest 235 270 16,000  Level New York Center
08:49PM 42.1122 -76.2333 243° Southwest 235 270 16,000  Level New York Center
08:50PM 42.0858 -76.3094 245° Southwest 235 270 16,000  Level New York Center
08:51PM 42.0656 -76.3858 250° West 229 264 16,000  Level New York Center
08:52PM 42.0389 -76.4644 245° Southwest 229 264 16,000  Level New York Center
08:53PM 42.0164 -76.5408 248° West 229 264 16,000  Level New York Center
08:54PM 41.9939 -76.6197 249° West 229 264 16,000  Level New York Center
08:55PM 41.9733 -76.6989 251° West 229 264 16,000  Level New York Center
08:56PM 41.9506 -76.7750 248° West 229 264 16,000  Level New York Center
08:57PM 41.9175 -76.8967 250° West 228 262 16,000  Level Cleveland Center
08:58PM 41.8950 -76.9761 249° West 228 262 16,000  Level Cleveland Center
08:59PM 41.8703 -77.0528 247° West 233 268 16,000  Level Cleveland Center
09:00PM 41.8456 -77.1322 247° West 233 268 16,000  Level Cleveland Center
09:01PM 41.8208 -77.2086 247° West 233 268 16,000  Level Cleveland Center
09:02PM 41.7939 -77.2881 246° West 238 274 16,000  Level Cleveland Center
09:03PM 41.7669 -77.3619 244° Southwest 238 274 16,000  Level Cleveland Center
09:04PM 41.7292 -77.4333 235° Southwest 238 274 16,000  Level Cleveland Center
09:05PM 41.6914 -77.5019 234° Southwest 238 274 16,000  Level Cleveland Center
09:06PM 41.6536 -77.5706 234° Southwest 238 274 16,000  Level Cleveland Center
09:07PM 41.6158 -77.6417 235° Southwest 238 274 16,000  Level Cleveland Center
09:08PM 41.5842 -77.7125 239° Southwest 233 268 16,000  Level Cleveland Center
09:09PM 41.5569 -77.7886 244° Southwest 233 268 16,000  Level Cleveland Center
09:10PM 41.5297 -77.8647 244° Southwest 233 268 16,000  Level Cleveland Center
09:11PM 41.5086 -77.9433 250° West 228 262 16,000  Level Cleveland Center
09:12PM 41.4875 -78.0217 250° West 228 262 16,000  Level Cleveland Center
09:13PM 41.4642 -78.1031 249° West 233 268 16,000  Level Cleveland Center
09:14PM 41.4408 -78.1789 248° West 233 268 16,000  Level Cleveland Center
09:15PM 41.4131 -78.2544 244° Southwest 233 268 16,000  Level Cleveland Center
09:16PM 41.3875 -78.3331 247° West 233 268 16,000  Level Cleveland Center
09:17PM 41.3681 -78.4028 250° West 233 268 16,000  Level Cleveland Center
09:18PM 41.3425 -78.4783 246° West 233 268 16,000  Level Cleveland Center
09:19PM 41.3167 -78.5567 246° West 233 268 16,000  Level Cleveland Center
09:20PM 41.2908 -78.6292 245° Southwest 233 268 16,000  Level Cleveland Center
09:21PM 41.2672 -78.7075 248° West 238 274 16,000  Level Cleveland Center
09:22PM 41.2414 -78.7853 246° West 233 268 16,000  Level Cleveland Center
09:23PM 41.2194 -78.8606 249° West 233 268 16,000  Level Cleveland Center
09:24PM 41.1917 -78.9497 248° West 239 275 16,000  Level Cleveland Center
09:25PM 41.1739 -79.0164 251° West 233 268 16,000  Level Cleveland Center
09:26PM 41.1519 -79.0942 249° West 233 268 16,000  Level Cleveland Center
09:27PM 41.1319 -79.1717 251° West 233 268 16,000  Level Cleveland Center
09:28PM 41.1122 -79.2547 253° West 233 268 16,000  Level Cleveland Center
09:29PM 41.0922 -79.3350 252° West 233 268 16,000  Level Cleveland Center
09:30PM 41.0700 -79.4097 248° West 233 268 16,000  Level Cleveland Center
09:31PM 41.0500 -79.4872 251° West 233 268 16,000  Level Cleveland Center
09:32PM 41.0278 -79.5647 249° West 233 268 16,000  Level Cleveland Center
09:33PM 41.0033 -79.6422 247° West 233 268 16,000  Level Cleveland Center
09:34PM 40.9811 -79.7167 248° West 233 268 16,000  Level Cleveland Center
09:35PM 40.9567 -79.7942 247° West 233 268 16,000  Level Cleveland Center
09:36PM 40.9342 -79.8686 248° West 233 268 16,000  Level Cleveland Center
09:37PM 40.9117 -79.9456 249° West 233 268 16,000  Level Cleveland Center
09:38PM 40.8892 -80.0200 248° West 233 268 16,000  Level Cleveland Center
09:39PM 40.8625 -80.1028 247° West 233 268 16,000  Level Cleveland Center
09:40PM 40.8336 -80.1769 243° Southwest 233 268 16,000  Level Cleveland Center
09:41PM 40.8067 -80.2511 244° Southwest 233 268 16,000  Level Cleveland Center
09:42PM 40.7714 -80.3228 237° Southwest 233 268 16,000  Level Cleveland Center
09:43PM 40.7361 -80.3831 232° Southwest 238 274 16,000  Level Cleveland Center
09:44PM 40.6944 -80.4489 230° Southwest 238 274 16,000  Level Cleveland Center
09:45PM 40.6550 -80.5175 233° Southwest 238 274 16,000  Level Cleveland Center
09:46PM 40.6111 -80.5914 232° Southwest 238 274 16,000  Level Cleveland Center
09:47PM 40.5778 -80.6542 235° Southwest 233 268 16,000  Level Cleveland Center
09:48PM 40.5425 -80.7225 236° Southwest 228 262 16,000  Level Cleveland Center
09:49PM 40.5069 -80.7906 236° Southwest 228 262 16,000  Level Cleveland Center
09:50PM 40.4711 -80.8586 235° Southwest 233 268 16,000  Level Cleveland Center
09:51PM 40.4356 -80.9267 236° Southwest 233 268 16,000  Level Cleveland Center
09:52PM 40.4000 -80.9947 236° Southwest 233 268 16,000  Level Cleveland Center
09:53PM 40.3642 -81.0653 236° Southwest 238 274 16,000  Level Cleveland Center
09:54PM 40.3264 -81.1306 233° Southwest 238 274 16,000  Level Cleveland Center
09:55PM 40.2886 -81.1956 233° Southwest 238 274 16,000  Level Cleveland Center
09:56PM 40.2467 -81.2725 234° Southwest 229 264 16,000  Level Indianapolis Center
09:57PM 40.2092 -81.3403 234° Southwest 229 264 16,000  Level Indianapolis Center
09:58PM 40.1719 -81.4100 235° Southwest 230 265 16,000  Level Indianapolis Center
09:59PM 40.1358 -81.4803 236° Southwest 231 266 16,000  Level Indianapolis Center
10:00PM 40.1022 -81.5514 238° Southwest 229 264 16,000  Level Indianapolis Center
10:01PM 40.0742 -81.6414 248° West 228 262 16,000  Level Indianapolis Center
10:02PM 40.0514 -81.7197 249° West 228 262 16,000  Level Indianapolis Center
10:03PM 40.0300 -81.7881 248° West 230 265 16,000  Level Indianapolis Center
10:04PM 40.0058 -81.8658 248° West 230 265 16,000  Level Indianapolis Center
10:05PM 39.9792 -81.9575 249° West 230 265 16,000  Level Indianapolis Center
10:06PM 39.9561 -82.0358 249° West 230 265 16,000  Level Indianapolis Center
10:07PM 39.9333 -82.1153 250° West 232 267 16,000  Level Indianapolis Center
10:08PM 39.9119 -82.1942 251° West 230 265 16,000  Level Indianapolis Center
10:09PM 39.8892 -82.2719 249° West 231 266 16,000  Level Indianapolis Center
10:10PM 39.8672 -82.3525 250° West 234 269 16,000  Level Indianapolis Center
10:12PM 39.8450 -82.4300 250° West 227 261 16,000  Level Indianapolis Center
10:13PM 39.8228 -82.5108 250° West 234 269 16,000  Level Indianapolis Center
10:14PM 39.7983 -82.5908 248° West 235 270 16,000  Level Indianapolis Center
10:15PM 39.7742 -82.6703 248° West 235 270 16,000  Level Indianapolis Center
10:16PM 39.7472 -82.7478 246° West 233 268 16,000  Level Indianapolis Center
10:17PM 39.7194 -82.8258 245° Southwest 235 270 16,000  Level Indianapolis Center
10:18PM 39.6917 -82.9017 245° Southwest 233 268 16,000  Level Indianapolis Center
10:19PM 39.6617 -82.9764 242° Southwest 232 267 16,000  Level Indianapolis Center
10:20PM 39.6306 -83.0497 241° Southwest 230 265 16,000  Level Indianapolis Center
10:21PM 39.5992 -83.1231 241° Southwest 230 265 16,000 -120 Level Indianapolis Center
10:22PM 39.5678 -83.1964 241° Southwest 230 265 15,800 -960 Descending Indianapolis Center
10:23PM 39.5308 -83.2856 242° Southwest 257 296 14,200 -2,880 Descending Indianapolis Center
10:24PM 39.4964 -83.3703 242° Southwest 250 288 10,000 -720 Descending Indianapolis Center
10:25PM 39.4661 -83.4494 244° Southwest 244 281 12,800 540 Climbing Indianapolis Center
10:26PM 39.4381 -83.5225 244° Southwest 246 283 11,100 -1,020 Descending Indianapolis Center
10:27PM 39.4064 -83.6067 244° Southwest 248 285 10,800 -660 Descending Indianapolis Center
10:28PM 39.3725 -83.6903 242° Southwest 265 305 9,800 -840 Descending Indianapolis Center
10:29PM 39.3392 -83.7783 244° Southwest 258 297 9,100 -480 Descending Indianapolis Center
10:30PM 39.3075 -83.8633 244° Southwest 259 298 8,800 -660 Descending Indianapolis Center
10:31PM 39.2756 -83.9486 244° Southwest 261 300 7,800 -1,020 Descending Indianapolis Center
10:32PM 39.2278 -84.0219 230° Southwest 266 306 6,800 -1,020 Descending Indianapolis Center
10:33PM 39.1833 -84.0981 233° Southwest 263 303 5,800 -1,020 Descending Indianapolis Center
10:34PM 39.1394 -84.1736 233° Southwest 264 304 4,800 -840 Descending Indianapolis Center
10:35PM 39.0956 -84.2531 235° Southwest 267 307 4,100 -420 Descending Indianapolis Center
10:36PM 39.0558 -84.3283 236° Southwest 260 299 4,000 -60 Descending Indianapolis Center
10:37PM 39.0194 -84.3944 235° Southwest 237 273 4,000  Level Indianapolis Center
10:38PM 38.9803 -84.4631 234° Southwest 235 270 4,000 -120 Level Indianapolis Center
10:40PM 38.9500 -84.5833 252° West 203 234 3,800 -600 Descending Cincinnati TRACON
10:41PM 38.9500 -84.6667 270° West 167 192 2,400 -1,020 Descending Cincinnati TRACON
10:42PM 38.9833 -84.6667 360° North 123 142 1,800 -720 Descending Cincinnati TRACON
10:44PM 39.0483 -84.6678 359° North  Level Estimated